Time;durP1;ratioP1;P1;durP2;ratioP2;P2;SDS_P1;SDS_P2;PMS_P1;PMS_P2;Temp;Humidity;BMP_temperature;BMP_pressure;BME280_temperature;BME280_humidity;BME280_pressure;Samples;Min_cycle;Max_cycle;Signal;HPM_P1;HPM_P2
2024/01/23 00:01:11;;;;;;;5.10;3.50;;;;;;;6.27;100.00;100107.84;182468;1232;59236;-78
2024/01/23 00:05:24;;;;;;;7.70;3.70;;;;;;;6.20;99.93;100100.56;183058;1232;46081;-78
2024/01/23 00:09:27;;;;;;;7.70;4.50;;;;;;;6.02;99.69;100091.86;181503;1232;46113;-78
2024/01/23 00:13:28;;;;;;;5.00;3.50;;;;;;;5.90;98.93;100090.69;185635;1232;45979;-79
2024/01/23 00:17:30;;;;;;;7.20;4.70;;;;;;;5.72;99.77;100091.67;183705;1232;46195;-78
2024/01/23 00:21:32;;;;;;;10.60;4.90;;;;;;;5.56;100.00;100093.59;185911;1233;59305;-79
2024/01/23 00:25:34;;;;;;;6.60;5.10;;;;;;;5.48;100.00;100097.59;183928;1232;46074;-78
2024/01/23 00:29:35;;;;;;;6.60;5.40;;;;;;;5.41;100.00;100093.13;183167;1236;46026;-78
2024/01/23 00:33:37;;;;;;;7.90;4.70;;;;;;;5.40;100.00;100095.48;183984;1232;46003;-78
2024/01/23 00:37:39;;;;;;;6.40;4.60;;;;;;;5.38;100.00;100099.27;183719;1232;46194;-78
2024/01/23 00:41:41;;;;;;;5.70;4.30;;;;;;;5.32;100.00;100101.77;184441;1232;56927;-79
2024/01/23 00:45:42;;;;;;;8.70;3.90;;;;;;;5.29;100.00;100108.60;184266;1233;44007;-78
2024/01/23 00:49:45;;;;;;;4.40;3.40;;;;;;;5.33;100.00;100106.98;185644;1232;43978;-79
2024/01/23 00:53:47;;;;;;;5.00;2.80;;;;;;;5.34;100.00;100106.06;185835;1232;43882;-79
2024/01/23 00:57:49;;;;;;;5.90;3.00;;;;;;;5.38;100.00;100109.48;184756;1232;46103;-79
2024/01/23 01:01:51;;;;;;;5.20;3.00;;;;;;;5.48;100.00;100110.08;182943;1233;57932;-78
2024/01/23 01:05:53;;;;;;;6.40;3.40;;;;;;;5.65;100.00;100120.09;182414;1232;46022;-78
2024/01/23 01:09:55;;;;;;;4.80;2.50;;;;;;;5.84;100.00;100120.10;182243;1232;46075;-78
2024/01/23 01:13:57;;;;;;;2.70;2.40;;;;;;;6.01;100.00;100117.96;182918;1236;46071;-78
2024/01/23 01:17:59;;;;;;;6.00;3.40;;;;;;;6.12;100.00;100117.65;183965;1232;46120;-78
2024/01/23 01:22:01;;;;;;;6.70;2.40;;;;;;;6.20;100.00;100117.16;182102;1232;57876;-78
2024/01/23 01:26:03;;;;;;;8.20;2.90;;;;;;;6.28;100.00;100120.48;184301;1232;45920;-78
2024/01/23 01:30:06;;;;;;;6.50;3.20;;;;;;;6.35;100.00;100117.17;182335;1236;46471;-78
2024/01/23 01:34:07;;;;;;;3.50;1.80;;;;;;;6.50;100.00;100120.98;183483;1232;46009;-78
2024/01/23 01:38:09;;;;;;;11.80;4.70;;;;;;;6.54;100.00;100155.55;183879;1232;46032;-78
2024/01/23 01:42:11;;;;;;;10.30;4.20;;;;;;;6.60;100.00;100138.42;184847;1232;59727;-78
2024/01/23 01:46:19;;;;;;;8.50;2.20;;;;;;;6.60;100.00;100129.83;185071;1232;44105;-78
2024/01/23 01:50:22;;;;;;;9.10;4.90;;;;;;;6.49;100.00;100121.90;183958;1232;46160;-78
2024/01/23 01:54:26;;;;;;;5.50;3.50;;;;;;;6.52;99.93;100130.52;183665;1232;45958;-78
2024/01/23 01:58:30;;;;;;;11.80;3.20;;;;;;;6.44;98.84;100137.58;183212;1233;46060;-78
2024/01/23 02:02:32;;;;;;;5.90;4.70;;;;;;;6.35;98.10;100144.50;183820;1234;59109;-77
2024/01/23 02:06:35;;;;;;;7.10;2.60;;;;;;;6.27;97.72;100152.57;181447;1236;46544;-79
2024/01/23 02:10:37;;;;;;;7.30;4.10;;;;;;;6.21;98.03;100155.45;182436;1232;46022;-78
2024/01/23 02:14:39;;;;;;;5.60;3.40;;;;;;;6.16;98.19;100146.30;183511;1232;45997;-78
2024/01/23 02:18:40;;;;;;;7.20;4.40;;;;;;;5.96;97.36;100146.66;184283;1232;44131;-79
2024/01/23 02:22:42;;;;;;;7.10;3.50;;;;;;;5.77;98.29;100161.71;185312;1232;57875;-79
2024/01/23 02:26:44;;;;;;;5.30;3.90;;;;;;;5.71;98.81;100160.52;186277;1232;43905;-78
2024/01/23 02:30:45;;;;;;;5.00;3.50;;;;;;;5.67;100.00;100165.38;184284;1232;45969;-79
2024/01/23 02:34:47;;;;;;;4.50;2.70;;;;;;;5.68;100.00;100162.29;185970;1236;43855;-79
2024/01/23 02:38:49;;;;;;;4.20;2.00;;;;;;;5.75;100.00;100160.80;186233;1233;44025;-79
2024/01/23 02:42:50;;;;;;;4.00;2.20;;;;;;;5.85;100.00;100157.70;183486;1237;59684;-79
2024/01/23 02:46:52;;;;;;;4.50;3.40;;;;;;;6.00;100.00;100156.80;183002;1232;45962;-78
2024/01/23 02:50:54;;;;;;;11.60;3.20;;;;;;;6.18;100.00;100157.91;185514;1232;43986;-79
2024/01/23 02:54:55;;;;;;;6.50;2.50;;;;;;;6.35;99.34;100158.09;186240;1232;44099;-79
2024/01/23 02:58:57;;;;;;;5.40;2.60;;;;;;;6.50;98.25;100160.77;186230;1232;44022;-79
2024/01/23 03:02:59;;;;;;;6.70;2.90;;;;;;;6.63;96.98;100157.75;186465;1234;57297;-79
2024/01/23 03:07:02;;;;;;;7.10;2.00;;;;;;;6.70;95.44;100157.87;185079;1233;44125;-79
2024/01/23 03:11:04;;;;;;;6.60;2.30;;;;;;;6.70;94.22;100171.41;183449;1232;45887;-79
2024/01/23 03:15:07;;;;;;;4.00;1.70;;;;;;;6.71;93.70;100173.09;186019;1235;44246;-79
2024/01/23 03:19:09;;;;;;;7.50;3.00;;;;;;;6.67;92.95;100176.69;182989;1232;45998;-79
2024/01/23 03:23:11;;;;;;;11.10;3.10;;;;;;;6.61;92.52;100175.54;185438;1232;59013;-79
2024/01/23 03:27:13;;;;;;;6.70;2.60;;;;;;;6.51;92.82;100181.28;184494;1233;46113;-79
2024/01/23 03:31:15;;;;;;;5.40;2.20;;;;;;;6.52;93.46;100187.77;183159;1235;46199;-79
2024/01/23 03:35:17;;;;;;;7.70;2.60;;;;;;;6.58;93.46;100185.45;182375;1232;46020;-79
2024/01/23 03:39:18;;;;;;;5.50;2.80;;;;;;;6.67;93.26;100188.17;184000;1234;46079;-79
2024/01/23 03:43:20;;;;;;;7.10;2.50;;;;;;;6.70;91.99;100192.06;183526;1232;58712;-79
2024/01/23 03:47:22;;;;;;;4.80;1.70;;;;;;;6.76;91.35;100191.34;184062;1232;46024;-78
2024/01/23 03:51:23;;;;;;;6.90;2.60;;;;;;;6.75;90.79;100189.45;181837;1232;45992;-79
2024/01/23 03:55:25;;;;;;;14.70;2.90;;;;;;;6.72;90.17;100188.04;184720;1234;46636;-79
2024/01/23 03:59:27;;;;;;;5.20;3.00;;;;;;;6.68;89.98;100188.11;182818;1232;46086;-78
2024/01/23 04:03:29;;;;;;;6.40;2.10;;;;;;;6.64;90.40;100188.75;184135;1232;57798;-78
2024/01/23 04:07:31;;;;;;;4.70;3.20;;;;;;;6.67;91.05;100198.73;183349;1236;45968;-79
2024/01/23 04:11:33;;;;;;;3.80;2.30;;;;;;;6.69;90.88;100201.10;183333;1236;46132;-79
2024/01/23 04:15:36;;;;;;;10.30;2.00;;;;;;;6.66;90.97;100203.02;182269;1234;46197;-83
2024/01/23 04:19:38;;;;;;;6.40;3.10;;;;;;;6.57;91.33;100206.32;182774;1232;46048;-83
2024/01/23 04:23:40;;;;;;;4.40;2.10;;;;;;;6.52;91.91;100208.19;182994;1233;57840;-84
2024/01/23 04:27:42;;;;;;;4.30;2.00;;;;;;;6.49;92.29;100207.72;183103;1232;46049;-83
2024/01/23 04:31:43;;;;;;;6.30;2.70;;;;;;;6.49;91.96;100209.62;183941;1232;45967;-83
2024/01/23 04:35:46;;;;;;;6.70;1.20;;;;;;;6.50;91.30;100213.98;183240;1235;46639;-83
2024/01/23 04:39:48;;;;;;;4.40;2.90;;;;;;;6.28;91.24;100227.02;182877;1237;46075;-83
2024/01/23 04:43:50;;;;;;;13.00;3.50;;;;;;;6.00;91.68;100234.90;182997;1232;58076;-83
2024/01/23 04:47:52;;;;;;;5.60;2.80;;;;;;;5.85;93.43;100237.27;182839;1232;45993;-83
2024/01/23 04:51:55;;;;;;;11.80;3.40;;;;;;;5.83;93.57;100243.00;182859;1232;45995;-83
2024/01/23 04:55:57;;;;;;;5.20;3.70;;;;;;;5.79;95.15;100238.13;182813;1234;45931;-83
2024/01/23 04:59:59;;;;;;;3.70;2.20;;;;;;;5.79;94.59;100246.96;182742;1234;46062;-83
2024/01/23 05:04:00;;;;;;;6.10;2.90;;;;;;;5.78;95.78;100252.45;182823;1236;59644;-83
2024/01/23 05:08:03;;;;;;;12.40;3.50;;;;;;;5.81;96.94;100252.30;182655;1234;46083;-83
2024/01/23 05:12:06;;;;;;;6.40;3.30;;;;;;;5.85;94.98;100252.59;182572;1234;46055;-83
2024/01/23 05:16:08;;;;;;;8.80;5.00;;;;;;;5.78;93.39;100254.40;182595;1232;46081;-83
2024/01/23 05:20:10;;;;;;;10.50;3.60;;;;;;;5.65;93.67;100269.48;182868;1232;46372;-83
2024/01/23 05:24:12;;;;;;;10.00;4.10;;;;;;;5.52;96.78;100292.61;182352;1234;59356;-82
2024/01/23 05:28:14;;;;;;;10.60;6.40;;;;;;;5.56;96.22;100289.84;182611;1234;46099;-83
2024/01/23 05:32:16;;;;;;;8.10;3.70;;;;;;;5.60;95.76;100284.38;183006;1232;46095;-83
2024/01/23 05:36:18;;;;;;;11.50;4.40;;;;;;;5.54;96.00;100292.98;182509;1234;46141;-83
2024/01/23 05:40:20;;;;;;;5.00;3.30;;;;;;;5.57;96.86;100305.64;182688;1237;46771;-82
2024/01/23 05:44:21;;;;;;;49.00;44.20;;;;;;;5.57;98.05;100305.66;182598;1232;59104;-83
2024/01/23 05:48:23;;;;;;;6.50;5.80;;;;;;;5.51;99.94;100283.15;183016;1232;46075;-82
2024/01/23 05:52:25;;;;;;;5.90;4.50;;;;;;;5.35;100.00;100289.91;183038;1236;46058;-83
2024/01/23 05:56:27;;;;;;;15.50;4.70;;;;;;;5.34;100.00;100295.97;182624;1232;45962;-83
2024/01/23 06:00:28;;;;;;;11.70;8.60;;;;;;;5.38;100.00;100299.76;182753;1232;46421;-83
2024/01/23 06:04:30;;;;;;;16.40;10.60;;;;;;;5.39;100.00;100301.29;182641;1236;58142;-83
2024/01/23 06:08:32;;;;;;;18.10;8.20;;;;;;;5.37;100.00;100309.83;182879;1232;46072;-83
2024/01/23 06:12:34;;;;;;;15.40;7.00;;;;;;;5.26;100.00;100312.61;183037;1232;44310;-83
2024/01/23 06:16:38;;;;;;;11.70;5.60;;;;;;;5.18;100.00;100312.52;182523;1232;46090;-83
2024/01/23 06:20:39;;;;;;;9.80;4.80;;;;;;;5.12;100.00;100322.73;182530;1232;46416;-82
2024/01/23 06:24:59;;;;;;;6.00;4.60;;;;;;;5.15;100.00;100331.89;182884;1232;58050;-83
2024/01/23 06:29:02;;;;;;;4.30;2.40;;;;;;;5.12;100.00;100351.89;182543;1232;45943;-83
2024/01/23 06:33:05;;;;;;;6.60;3.60;;;;;;;5.22;100.00;100364.88;182959;1236;46088;-82
2024/01/23 06:37:07;;;;;;;8.00;4.30;;;;;;;5.15;100.00;100399.53;182698;1237;45973;-83
2024/01/23 06:41:09;;;;;;;7.30;3.90;;;;;;;5.05;100.00;100409.77;182669;1232;45968;-83
2024/01/23 06:45:11;;;;;;;10.30;4.50;;;;;;;5.10;100.00;100411.77;182688;1232;58521;-83
2024/01/23 06:49:12;;;;;;;9.50;3.90;;;;;;;5.09;100.00;100420.13;182529;1232;45895;-83
2024/01/23 06:53:15;;;;;;;11.70;4.80;;;;;;;4.94;100.00;100434.16;183431;1232;46997;-83
2024/01/23 06:57:16;;;;;;;9.10;5.40;;;;;;;4.73;100.00;100454.27;183119;1232;45866;-82
2024/01/23 07:01:18;;;;;;;11.40;6.70;;;;;;;4.56;100.00;100470.63;182863;1235;46044;-82
2024/01/23 07:05:20;;;;;;;11.20;5.90;;;;;;;4.52;100.00;100475.77;182757;1237;59306;-82
2024/01/23 07:09:22;;;;;;;10.80;5.60;;;;;;;4.47;100.00;100476.73;182905;1232;46039;-82
2024/01/23 07:13:24;;;;;;;14.20;4.20;;;;;;;4.41;100.00;100480.02;183166;1238;46514;-83
2024/01/23 07:17:26;;;;;;;15.40;5.40;;;;;;;4.40;100.00;100482.50;182783;1237;46116;-81
2024/01/23 07:21:28;;;;;;;8.10;4.70;;;;;;;4.45;100.00;100487.21;182580;1232;45952;-82
2024/01/23 07:25:30;;;;;;;10.10;4.00;;;;;;;4.52;100.00;100480.17;182535;1232;59686;-82
2024/01/23 07:29:32;;;;;;;7.00;3.30;;;;;;;4.54;100.00;100483.36;183162;1232;45988;-82
2024/01/23 07:33:34;;;;;;;16.00;5.20;;;;;;;4.55;100.00;100491.06;182789;1237;46144;-82
2024/01/23 07:37:36;;;;;;;8.10;4.80;;;;;;;4.56;100.00;100493.48;182814;1232;46009;-82
2024/01/23 07:41:38;;;;;;;5.40;3.20;;;;;;;4.58;100.00;100502.98;182938;1237;46091;-82
2024/01/23 07:45:40;;;;;;;2.80;2.20;;;;;;;4.63;100.00;100505.23;182777;1237;59276;-82
2024/01/23 07:49:42;;;;;;;8.90;3.30;;;;;;;4.65;100.00;100514.91;182677;1232;46023;-82
2024/01/23 07:53:50;;;;;;;10.10;3.20;;;;;;;4.68;100.00;100527.95;183187;1232;45988;-82
2024/01/23 07:57:52;;;;;;;6.50;2.40;;;;;;;4.68;100.00;100525.64;183492;1234;45968;-82
2024/01/23 08:01:54;;;;;;;5.80;3.30;;;;;;;4.69;100.00;100533.33;183117;1237;45927;-83
2024/01/23 08:05:57;;;;;;;4.70;2.80;;;;;;;4.71;100.00;100530.78;182757;1233;60615;-82
2024/01/23 08:09:59;;;;;;;6.50;2.60;;;;;;;4.81;100.00;100530.08;182758;1237;45976;-82
2024/01/23 08:14:01;;;;;;;3.80;2.20;;;;;;;4.91;100.00;100533.25;182828;1236;46535;-81
2024/01/23 08:18:03;;;;;;;4.00;2.30;;;;;;;4.96;100.00;100535.24;183327;1236;45969;-83
2024/01/23 08:22:07;;;;;;;5.70;1.90;;;;;;;5.02;100.00;100534.09;183730;1232;46073;-83
2024/01/23 08:26:09;;;;;;;4.00;1.80;;;;;;;5.05;100.00;100552.16;183337;1232;58106;-82
2024/01/23 08:30:23;;;;;;;3.10;1.90;;;;;;;5.06;100.00;100547.38;182865;1233;46173;-83
2024/01/23 08:34:24;;;;;;;3.40;2.40;;;;;;;5.05;100.00;100551.46;183022;1232;46072;-82
2024/01/23 08:38:26;;;;;;;4.40;1.90;;;;;;;5.15;100.00;100561.45;182784;1236;46119;-82
2024/01/23 08:42:28;;;;;;;7.50;2.40;;;;;;;5.41;100.00;100565.67;182607;1232;46153;-82
2024/01/23 08:46:30;;;;;;;3.60;1.80;;;;;;;5.73;100.00;100570.24;182520;1236;59114;-82
2024/01/23 08:50:32;;;;;;;9.40;3.00;;;;;;;6.01;100.00;100585.94;182563;1232;45950;-81
2024/01/23 08:54:36;;;;;;;4.90;2.30;;;;;;;6.19;100.00;100587.73;183163;1237;46072;-82
2024/01/23 08:58:38;;;;;;;4.70;1.90;;;;;;;6.31;100.00;100595.32;183372;1232;46175;-82
2024/01/23 09:02:40;;;;;;;8.70;2.80;;;;;;;6.30;100.00;100597.64;183399;1232;45927;-82
2024/01/23 09:06:41;;;;;;;4.70;2.10;;;;;;;6.26;100.00;100596.96;182938;1232;59210;-82
2024/01/23 09:10:43;;;;;;;6.00;3.40;;;;;;;6.20;100.00;100605.48;182968;1237;46167;-82
2024/01/23 09:14:46;;;;;;;4.70;2.10;;;;;;;6.17;100.00;100607.38;182947;1233;45956;-81
2024/01/23 09:18:48;;;;;;;7.90;2.80;;;;;;;6.15;100.00;100614.20;182957;1232;46491;-81
2024/01/23 09:22:51;;;;;;;7.00;3.00;;;;;;;6.07;100.00;100610.55;183115;1234;45969;-82
2024/01/23 09:26:58;;;;;;;4.60;3.10;;;;;;;6.23;100.00;100619.20;182723;1232;59381;-82
2024/01/23 09:31:00;;;;;;;7.80;3.30;;;;;;;6.40;100.00;100620.33;182328;1236;46052;-82
2024/01/23 09:35:02;;;;;;;5.60;1.90;;;;;;;6.59;100.00;100629.39;182628;1236;46173;-82
2024/01/23 09:39:04;;;;;;;6.10;3.30;;;;;;;6.74;100.00;100632.95;182479;1236;46276;-82
2024/01/23 09:43:11;;;;;;;6.50;2.40;;;;;;;6.78;99.62;100641.33;182889;1232;46072;-82
2024/01/23 09:47:13;;;;;;;;;;;;;;;6.80;99.29;100638.40;182673;1237;57933;-83
2024/01/23 09:51:15;;;;;;;5.40;1.60;;;;;;;6.91;98.20;100636.18;183132;1233;46032;-83
2024/01/23 09:55:18;;;;;;;4.90;2.30;;;;;;;7.04;97.46;100639.02;182928;1232;180711;-83
2024/01/23 09:59:21;;;;;;;8.20;2.70;;;;;;;7.19;96.21;100645.07;182830;1232;46024;-82
2024/01/23 10:03:22;;;;;;;7.30;1.50;;;;;;;7.19;95.95;100643.98;183249;1232;46248;-83
2024/01/23 10:07:25;;;;;;;7.00;3.20;;;;;;;7.10;95.74;100650.17;182955;1232;59170;-82
2024/01/23 10:11:28;;;;;;;4.50;2.60;;;;;;;6.98;96.36;100651.08;183213;1232;45972;-82
2024/01/23 10:15:30;;;;;;;5.30;2.20;;;;;;;7.01;97.48;100649.50;182636;1232;46097;-82
2024/01/23 10:19:32;;;;;;;6.70;2.30;;;;;;;7.17;97.37;100658.05;182625;1232;45982;-83
2024/01/23 10:23:34;;;;;;;2.60;2.00;;;;;;;7.27;97.37;100662.23;182539;1232;45952;-82
2024/01/23 10:27:36;;;;;;;4.10;2.90;;;;;;;7.32;96.06;100661.55;183492;1236;58489;-82
2024/01/23 10:31:38;;;;;;;5.90;2.40;;;;;;;7.32;96.10;100673.55;182707;1232;46098;-82
2024/01/23 10:35:43;;;;;;;6.00;2.80;;;;;;;7.30;95.93;100673.48;183059;1237;46022;-83
2024/01/23 10:39:45;;;;;;;5.50;2.80;;;;;;;7.36;95.22;100678.95;183249;1232;45956;-83
2024/01/23 10:43:47;;;;;;;4.90;2.20;;;;;;;7.48;94.96;100688.27;183092;1232;46081;-82
2024/01/23 10:47:53;;;;;;;6.90;2.50;;;;;;;7.43;93.77;100697.04;182613;1236;58181;-83
2024/01/23 10:51:59;;;;;;;7.10;3.30;;;;;;;7.37;93.49;100692.28;182737;1232;46014;-85
2024/01/23 10:56:02;;;;;;;7.70;2.00;;;;;;;7.37;94.09;100696.15;182517;1232;45960;-83
2024/01/23 11:00:05;;;;;;;11.20;2.70;;;;;;;7.24;93.06;100685.84;182971;1232;45962;-82
2024/01/23 11:04:07;;;;;;;4.80;2.50;;;;;;;7.12;92.94;100689.89;182743;1237;46201;-83
2024/01/23 11:08:21;;;;;;;6.00;2.10;;;;;;;7.04;93.16;100689.87;183264;1236;58004;-83
2024/01/23 11:12:36;;;;;;;14.40;3.00;;;;;;;7.02;93.61;100693.50;183041;1232;45936;-83
2024/01/23 11:16:39;;;;;;;10.20;3.10;;;;;;;7.01;92.67;100693.89;182664;1232;45157;-83
2024/01/23 11:20:40;;;;;;;9.60;2.30;;;;;;;7.03;92.29;100690.08;182850;1232;45873;-83
2024/01/23 11:24:46;;;;;;;7.20;2.90;;;;;;;7.05;92.51;100700.39;183019;1232;45968;-83
2024/01/23 11:28:53;;;;;;;10.00;3.30;;;;;;;7.00;92.48;100696.27;183012;1232;60483;-83
2024/01/23 11:33:22;;;;;;;3.50;2.30;;;;;;;7.03;92.08;100706.86;182659;1232;46069;-84
2024/01/23 11:37:33;;;;;;;4.90;2.90;;;;;;;7.01;91.88;100701.86;183612;1232;45982;-82
2024/01/23 11:41:37;;;;;;;3.60;1.90;;;;;;;7.03;90.81;100699.42;182998;1234;46231;-82
2024/01/23 11:45:40;;;;;;;7.20;2.40;;;;;;;7.09;90.39;100711.63;182479;1232;46454;-83
2024/01/23 11:49:44;;;;;;;7.20;3.00;;;;;;;7.10;90.91;100717.37;183154;1236;58175;-83
2024/01/23 11:53:46;;;;;;;10.10;3.10;;;;;;;7.08;90.77;100724.70;182436;1232;45950;-83
2024/01/23 11:57:49;;;;;;;6.90;3.40;;;;;;;7.12;90.60;100724.86;183010;1232;46111;-83
2024/01/23 12:01:52;;;;;;;8.80;2.50;;;;;;;7.10;90.93;100727.60;183062;1232;44122;-83
2024/01/23 12:05:55;;;;;;;3.30;2.00;;;;;;;7.16;91.11;100740.82;183309;1232;46123;-83
2024/01/23 12:09:57;;;;;;;10.10;3.50;;;;;;;7.25;91.00;100733.40;182455;1237;59312;-83
2024/01/23 12:13:59;;;;;;;10.90;2.70;;;;;;;7.33;91.08;100722.69;182712;1232;46075;-83
2024/01/23 12:18:01;;;;;;;12.70;3.00;;;;;;;7.47;91.14;100716.72;182546;1237;46174;-83
2024/01/23 12:22:04;;;;;;;16.30;4.20;;;;;;;7.37;90.61;100733.90;182591;1232;46072;-83
2024/01/23 12:26:06;;;;;;;10.40;3.40;;;;;;;7.33;90.02;100730.08;183146;1232;45953;-83
2024/01/23 12:30:15;;;;;;;4.60;2.60;;;;;;;7.34;90.81;100726.90;182943;1236;57915;-83
2024/01/23 12:34:19;;;;;;;11.10;3.80;;;;;;;7.27;91.15;100742.65;183144;1232;46083;-83
2024/01/23 12:38:21;;;;;;;9.60;4.60;;;;;;;7.20;91.45;100745.73;182955;1232;45947;-83
2024/01/23 12:42:23;;;;;;;11.30;4.40;;;;;;;7.19;91.12;100745.40;182751;1232;46084;-83
2024/01/23 12:46:26;;;;;;;10.90;2.90;;;;;;;7.12;91.68;100752.15;183177;1236;46080;-82
2024/01/23 12:50:33;;;;;;;13.70;3.30;;;;;;;7.11;90.39;100746.73;182597;1237;58066;-83
2024/01/23 12:54:35;;;;;;;9.00;3.40;;;;;;;7.09;90.44;100769.61;182500;1234;46158;-83
2024/01/23 12:58:37;;;;;;;9.50;4.60;;;;;;;7.08;90.99;100776.04;183132;1232;45959;-83
2024/01/23 13:02:40;;;;;;;9.40;5.30;;;;;;;7.01;91.04;100769.58;183036;1232;46027;-83
2024/01/23 13:06:42;;;;;;;12.00;4.00;;;;;;;7.03;91.16;100773.32;182759;1232;46137;-83
2024/01/23 13:10:44;;;;;;;14.40;4.30;;;;;;;7.00;91.48;100788.48;183137;1232;59131;-82
2024/01/23 13:14:46;;;;;;;8.10;4.20;;;;;;;6.93;92.02;100804.92;182783;1236;46273;-82
2024/01/23 13:18:48;;;;;;;6.20;3.50;;;;;;;6.83;92.95;100813.83;182561;1234;45973;-83
2024/01/23 13:22:50;;;;;;;5.60;3.00;;;;;;;6.77;92.90;100809.95;182859;1232;45946;-83
2024/01/23 13:26:52;;;;;;;15.30;4.30;;;;;;;6.77;92.60;100816.08;182734;1232;45925;-83
2024/01/23 13:30:53;;;;;;;7.80;3.80;;;;;;;6.75;92.61;100809.18;182984;1234;58104;-82
2024/01/23 13:34:55;;;;;;;15.30;4.60;;;;;;;6.66;93.20;100810.37;182578;1232;45941;-82
2024/01/23 13:38:57;;;;;;;9.50;3.80;;;;;;;6.63;93.41;100810.02;182719;1232;46078;-83
2024/01/23 13:42:59;;;;;;;9.40;4.50;;;;;;;6.62;93.89;100802.83;182308;1237;46078;-83
2024/01/23 13:47:01;;;;;;;8.70;3.70;;;;;;;6.63;94.49;100801.20;182572;1232;45911;-83
2024/01/23 13:51:03;;;;;;;10.90;4.70;;;;;;;6.60;96.71;100804.71;182669;1232;56826;-82
2024/01/23 13:55:06;;;;;;;8.10;3.20;;;;;;;6.52;98.24;100816.83;182532;1232;45927;-83
2024/01/23 13:59:07;;;;;;;12.40;5.70;;;;;;;6.43;97.86;100825.71;182274;1232;45958;-82
2024/01/23 14:03:13;;;;;;;12.60;4.60;;;;;;;6.47;97.04;100824.98;182827;1232;46433;-83
2024/01/23 14:07:14;;;;;;;12.60;4.30;;;;;;;6.47;96.62;100826.59;182741;1232;45960;-82
2024/01/23 14:11:16;;;;;;;11.90;3.90;;;;;;;6.46;96.38;100816.60;183021;1232;57956;-82
2024/01/23 14:15:19;;;;;;;10.80;4.70;;;;;;;6.48;96.01;100826.73;182762;1232;45930;-82
2024/01/23 14:19:21;;;;;;;9.20;4.60;;;;;;;6.46;95.92;100826.30;183125;1232;44677;-83
2024/01/23 14:23:23;;;;;;;9.40;4.00;;;;;;;6.46;96.19;100820.12;182675;1234;46405;-82
2024/01/23 14:27:25;;;;;;;6.40;3.10;;;;;;;6.47;96.21;100830.45;182821;1232;46010;-82
2024/01/23 14:31:27;;;;;;;10.50;2.70;;;;;;;6.43;96.40;100847.91;182388;1232;58645;-83
2024/01/23 14:35:28;;;;;;;7.70;4.50;;;;;;;6.43;96.10;100849.36;183444;1236;46148;-83
2024/01/23 14:39:31;;;;;;;8.80;4.10;;;;;;;6.42;95.45;100858.90;182587;1237;46280;-82
2024/01/23 14:43:33;;;;;;;5.40;3.50;;;;;;;6.50;94.71;100869.57;183018;1234;46158;-83
2024/01/23 14:47:35;;;;;;;11.30;4.40;;;;;;;6.50;94.21;100871.73;183077;1232;46024;-83
2024/01/23 14:51:38;;;;;;;7.80;4.30;;;;;;;6.50;94.27;100895.30;182688;1232;57775;-83
2024/01/23 14:55:42;;;;;;;10.40;5.30;;;;;;;6.49;94.54;100897.84;183414;1232;46029;-82
2024/01/23 14:59:44;;;;;;;10.10;4.80;;;;;;;6.44;94.43;100907.45;182993;1234;46060;-83
2024/01/23 15:03:46;;;;;;;25.50;4.90;;;;;;;6.39;94.51;100916.34;183061;1232;45937;-83
2024/01/23 15:07:49;;;;;;;10.50;3.60;;;;;;;6.36;94.96;100929.36;182575;1232;45021;-83
2024/01/23 15:11:51;;;;;;;13.70;5.00;;;;;;;6.30;94.84;100939.16;183191;1232;58176;-83
2024/01/23 15:15:53;;;;;;;11.90;4.40;;;;;;;6.27;95.20;100956.63;183712;1232;44317;-82
2024/01/23 15:19:55;;;;;;;11.00;4.60;;;;;;;6.23;95.05;100961.02;183442;1237;46180;-83
2024/01/23 15:23:57;;;;;;;15.20;4.80;;;;;;;6.27;94.56;100964.19;183398;1232;45998;-83
2024/01/23 15:27:59;;;;;;;11.90;4.70;;;;;;;6.31;94.18;100974.19;183102;1232;45979;-82
2024/01/23 15:32:02;;;;;;;11.00;5.30;;;;;;;6.31;93.96;100981.95;183184;1236;58004;-83
2024/01/23 15:36:05;;;;;;;7.40;4.20;;;;;;;6.33;93.61;100991.19;182774;1232;46044;-82
2024/01/23 15:40:08;;;;;;;16.90;5.60;;;;;;;6.33;93.60;100992.92;182991;1234;46083;-83
2024/01/23 15:44:10;;;;;;;14.60;4.50;;;;;;;6.31;93.97;100998.86;182555;1237;45998;-82
2024/01/23 15:48:12;;;;;;;10.90;3.70;;;;;;;6.30;93.82;101009.49;182846;1232;46070;-83
2024/01/23 15:52:14;;;;;;;9.90;5.40;;;;;;;6.31;93.27;101006.23;182670;1237;58065;-82
2024/01/23 15:56:17;;;;;;;15.70;6.10;;;;;;;6.38;93.05;101014.32;182639;1232;46033;-84
2024/01/23 16:00:19;;;;;;;17.00;5.80;;;;;;;6.39;92.87;101027.12;182783;1236;46078;-83
2024/01/23 16:04:21;;;;;;;11.50;3.80;;;;;;;6.39;92.74;101024.35;182827;1232;45976;-83
2024/01/23 16:08:23;;;;;;;9.30;3.60;;;;;;;6.40;92.66;101033.80;183067;1232;46059;-83
2024/01/23 16:12:25;;;;;;;13.00;5.30;;;;;;;6.43;92.48;101042.95;183119;1236;56985;-83
2024/01/23 16:16:27;;;;;;;6.40;3.80;;;;;;;6.42;92.54;101045.67;182802;1232;46097;-83
2024/01/23 16:20:29;;;;;;;12.70;4.70;;;;;;;6.40;92.56;101056.66;182645;1232;46072;-82
2024/01/23 16:24:30;;;;;;;11.60;5.00;;;;;;;6.42;92.41;101054.67;183094;1232;46195;-84
2024/01/23 16:28:32;;;;;;;14.60;5.10;;;;;;;6.38;92.51;101065.93;182881;1237;46190;-83
2024/01/23 16:32:34;;;;;;;8.50;6.00;;;;;;;6.35;92.57;101068.73;183310;1232;59419;-83
2024/01/23 16:36:36;;;;;;;10.00;5.40;;;;;;;6.40;92.64;101064.43;182609;1232;45960;-83
2024/01/23 16:40:38;;;;;;;14.80;4.30;;;;;;;6.45;92.40;101058.22;182956;1232;46097;-83
2024/01/23 16:44:40;;;;;;;14.20;5.40;;;;;;;6.48;92.20;101053.80;183316;1232;45889;-83
2024/01/23 16:48:42;;;;;;;14.50;4.70;;;;;;;6.51;91.94;101049.97;183412;1232;46010;-82
2024/01/23 16:52:44;;;;;;;12.50;4.40;;;;;;;6.52;91.74;101056.45;183304;1232;59650;-83
2024/01/23 16:56:47;;;;;;;10.80;4.50;;;;;;;6.51;91.35;101066.88;183090;1232;46558;-83
2024/01/23 17:00:49;;;;;;;8.80;4.80;;;;;;;6.52;91.08;101078.80;183016;1233;44471;-83
2024/01/23 17:04:51;;;;;;;12.00;4.40;;;;;;;6.53;91.15;101095.70;182654;1234;44989;-83
2024/01/23 17:08:54;;;;;;;7.00;4.60;;;;;;;6.53;90.99;101100.08;182849;1232;45957;-84
2024/01/23 17:12:56;;;;;;;12.70;5.00;;;;;;;6.52;90.99;101100.50;182805;1232;58798;-82
2024/01/23 17:16:58;;;;;;;12.60;3.90;;;;;;;6.53;90.60;101104.48;183604;1232;44354;-82
2024/01/23 17:21:00;;;;;;;5.70;3.90;;;;;;;6.55;90.14;101105.79;183041;1234;45916;-83
2024/01/23 17:25:02;;;;;;;9.60;5.40;;;;;;;6.56;89.70;101106.11;182999;1232;45999;-83
2024/01/23 17:29:04;;;;;;;17.40;4.60;;;;;;;6.59;89.38;101100.87;183155;1233;45960;-83
2024/01/23 17:33:06;;;;;;;9.20;4.00;;;;;;;6.63;88.95;101102.60;183118;1232;57772;-82
2024/01/23 17:37:07;;;;;;;12.50;5.40;;;;;;;6.66;88.50;101101.71;183330;1232;46183;-82
2024/01/23 17:41:09;;;;;;;15.70;5.00;;;;;;;6.65;88.28;101104.42;183112;1232;46033;-82
2024/01/23 17:45:11;;;;;;;11.30;4.40;;;;;;;6.61;88.11;101104.41;183240;1236;46096;-82
2024/01/23 17:49:14;;;;;;;22.70;4.70;;;;;;;6.57;87.90;101100.06;183786;1232;46070;-83
2024/01/23 17:53:16;;;;;;;7.60;4.00;;;;;;;6.52;87.91;101108.27;183181;1236;57977;-82
2024/01/23 17:57:18;;;;;;;18.70;5.10;;;;;;;6.44;88.00;101116.05;183852;1232;46209;-82
2024/01/23 18:01:21;;;;;;;10.50;5.20;;;;;;;6.37;88.12;101115.52;184279;1232;46011;-82
2024/01/23 18:05:23;;;;;;;14.40;5.60;;;;;;;6.33;88.51;101116.59;183371;1233;45952;-82
2024/01/23 18:09:25;;;;;;;13.80;4.00;;;;;;;6.28;88.73;101124.08;183057;1232;46167;-82
2024/01/23 18:13:29;;;;;;;11.50;5.40;;;;;;;6.23;88.80;101120.81;182763;1232;58041;-80
2024/01/23 18:17:31;;;;;;;14.90;5.90;;;;;;;6.14;88.88;101129.38;181924;1232;46087;-80
2024/01/23 18:21:33;;;;;;;16.70;6.40;;;;;;;6.04;89.62;101136.18;183642;1232;46074;-80
2024/01/23 18:25:35;;;;;;;9.10;4.80;;;;;;;5.99;89.77;101139.38;184201;1232;46193;-80
2024/01/23 18:29:37;;;;;;;11.60;5.40;;;;;;;5.95;89.87;101135.20;183444;1232;46330;-80
2024/01/23 18:33:38;;;;;;;14.10;5.00;;;;;;;5.88;90.35;101123.70;181929;1233;59326;-80
2024/01/23 18:37:40;;;;;;;12.70;5.70;;;;;;;5.86;90.28;101123.27;183711;1232;45960;-80